sensor_id;sensor_type;location;lat;lon;timestamp;pressure;altitude;pressure_sealevel;temperature;humidity
9035;BME280;4552;43.422;24.592;2023-04-08T00:23:59;100239.94;;;7.49;79.77
9035;BME280;4552;43.422;24.592;2023-04-08T00:26:26;100236.50;;;7.55;80.29
9035;BME280;4552;43.422;24.592;2023-04-08T00:28:53;100217.34;;;7.39;79.99
9035;BME280;4552;43.422;24.592;2023-04-08T00:31:20;100233.84;;;7.40;80.08
9035;BME280;4552;43.422;24.592;2023-04-08T00:33:47;100212.94;;;7.25;80.10
9035;BME280;4552;43.422;24.592;2023-04-08T00:36:14;100243.34;;;7.33;80.99
9035;BME280;4552;43.422;24.592;2023-04-08T00:38:42;100232.06;;;7.36;80.51
9035;BME280;4552;43.422;24.592;2023-04-08T00:41:10;100216.44;;;7.36;80.61
9035;BME280;4552;43.422;24.592;2023-04-08T00:43:37;100229.41;;;7.24;81.03
9035;BME280;4552;43.422;24.592;2023-04-08T00:46:04;100231.16;;;7.28;80.84
9035;BME280;4552;43.422;24.592;2023-04-08T00:48:32;100228.50;;;7.16;81.06
9035;BME280;4552;43.422;24.592;2023-04-08T00:50:59;100224.97;;;7.04;81.55
9035;BME280;4552;43.422;24.592;2023-04-08T00:53:27;100215.38;;;6.91;82.17
9035;BME280;4552;43.422;24.592;2023-04-08T00:55:54;100217.16;;;7.00;82.31
9035;BME280;4552;43.422;24.592;2023-04-08T00:58:22;100221.53;;;7.02;81.92
9035;BME280;4552;43.422;24.592;2023-04-08T01:04:16;100233.75;;;7.25;80.87
9035;BME280;4552;43.422;24.592;2023-04-08T01:06:49;100223.38;;;7.37;80.61
9035;BME280;4552;43.422;24.592;2023-04-08T01:09:18;100215.53;;;7.26;81.20
9035;BME280;4552;43.422;24.592;2023-04-08T01:11:49;100223.38;;;7.35;80.98
9035;BME280;4552;43.422;24.592;2023-04-08T01:14:22;100219.03;;;7.30;80.93
9035;BME280;4552;43.422;24.592;2023-04-08T01:16:49;100228.53;;;7.25;81.82
9035;BME280;4552;43.422;24.592;2023-04-08T01:19:21;100223.44;;;7.40;81.30
9035;BME280;4552;43.422;24.592;2023-04-08T01:21:52;100216.41;;;7.24;81.22
9035;BME280;4552;43.422;24.592;2023-04-08T01:24:27;100201.66;;;7.26;81.67
9035;BME280;4552;43.422;24.592;2023-04-08T01:26:57;100200.81;;;7.28;81.26
9035;BME280;4552;43.422;24.592;2023-04-08T01:36:09;100219.91;;;7.32;82.95
9035;BME280;4552;43.422;24.592;2023-04-08T01:38:37;100228.63;;;7.40;83.08
9035;BME280;4552;43.422;24.592;2023-04-08T01:41:05;100218.25;;;7.52;82.37
9035;BME280;4552;43.422;24.592;2023-04-08T01:43:35;100206.91;;;7.39;82.61
9035;BME280;4552;43.422;24.592;2023-04-08T01:52:49;100228.63;;;7.43;82.91
9035;BME280;4552;43.422;24.592;2023-04-08T01:55:18;100217.31;;;7.36;82.76
9035;BME280;4552;43.422;24.592;2023-04-08T01:57:48;100233.88;;;7.55;82.74
9035;BME280;4552;43.422;24.592;2023-04-08T02:03:42;100236.47;;;7.44;82.76
9035;BME280;4552;43.422;24.592;2023-04-08T02:06:10;100228.63;;;7.43;82.52
9035;BME280;4552;43.422;24.592;2023-04-08T02:08:36;100241.69;;;7.50;82.96
9035;BME280;4552;43.422;24.592;2023-04-08T02:11:04;100240.81;;;7.56;82.51
9035;BME280;4552;43.422;24.592;2023-04-08T02:13:31;100237.34;;;7.54;82.63
9035;BME280;4552;43.422;24.592;2023-04-08T02:53:07;100236.53;;;7.71;81.04
9035;BME280;4552;43.422;24.592;2023-04-08T02:55:34;100228.69;;;7.64;80.69
9035;BME280;4552;43.422;24.592;2023-04-08T02:58:01;100226.94;;;7.60;80.83
9035;BME280;4552;43.422;24.592;2023-04-08T03:00:28;100228.69;;;7.62;80.77
9035;BME280;4552;43.422;24.592;2023-04-08T03:02:55;100243.47;;;7.80;80.64
9035;BME280;4552;43.422;24.592;2023-04-08T03:05:22;100227.81;;;7.62;79.92
9035;BME280;4552;43.422;24.592;2023-04-08T03:07:49;100226.09;;;7.62;80.65
9035;BME280;4552;43.422;24.592;2023-04-08T03:10:17;100226.91;;;7.51;80.78
9035;BME280;4552;43.422;24.592;2023-04-08T03:12:44;100231.28;;;7.50;81.41
9035;BME280;4552;43.422;24.592;2023-04-08T03:15:11;100218.97;;;7.12;82.85
9035;BME280;4552;43.422;24.592;2023-04-08T03:17:38;100228.50;;;7.13;83.57
9035;BME280;4552;43.422;24.592;2023-04-08T03:20:06;100229.41;;;7.18;83.90
9035;BME280;4552;43.422;24.592;2023-04-08T03:22:33;100236.38;;;7.29;83.39
9035;BME280;4552;43.422;24.592;2023-04-08T03:25:00;100239.06;;;7.46;82.72
9035;BME280;4552;43.422;24.592;2023-04-08T03:27:29;100243.41;;;7.50;82.24
9035;BME280;4552;43.422;24.592;2023-04-08T03:29:56;100232.13;;;7.51;81.50
9035;BME280;4552;43.422;24.592;2023-04-08T03:32:23;100239.97;;;7.60;81.80
9035;BME280;4552;43.422;24.592;2023-04-08T03:34:50;100233.88;;;7.52;81.81
9035;BME280;4552;43.422;24.592;2023-04-08T03:37:18;100247.84;;;7.72;80.67
9035;BME280;4552;43.422;24.592;2023-04-08T03:39:45;100237.34;;;7.54;81.60
9035;BME280;4552;43.422;24.592;2023-04-08T03:42:12;100237.34;;;7.55;81.71
9035;BME280;4552;43.422;24.592;2023-04-08T05:43:36;100300.03;;;9.22;73.43
9035;BME280;4552;43.422;24.592;2023-04-08T05:46:05;100293.06;;;9.24;73.26
9035;BME280;4552;43.422;24.592;2023-04-08T05:48:34;100291.31;;;9.32;73.18
9035;BME280;4552;43.422;24.592;2023-04-08T05:51:02;100294.72;;;9.49;71.98
9035;BME280;4552;43.422;24.592;2023-04-08T05:53:29;100288.69;;;9.40;71.47
9035;BME280;4552;43.422;24.592;2023-04-08T05:55:56;100294.63;;;9.75;71.13
9035;BME280;4552;43.422;24.592;2023-04-08T05:58:23;100294.44;;;10.11;69.05
9035;BME280;4552;43.422;24.592;2023-04-08T06:00:51;100283.06;;;10.15;67.10
9035;BME280;4552;43.422;24.592;2023-04-08T06:03:19;100303.19;;;10.02;67.75
9035;BME280;4552;43.422;24.592;2023-04-08T06:05:46;100286.69;;;9.94;67.44
9035;BME280;4552;43.422;24.592;2023-04-08T06:08:13;100293.53;;;10.16;66.54
9035;BME280;4552;43.422;24.592;2023-04-08T06:10:47;100283.06;;;10.18;66.43
9035;BME280;4552;43.422;24.592;2023-04-08T06:23:21;100282.13;;;10.28;65.07
9035;BME280;4552;43.422;24.592;2023-04-08T06:25:48;100283.00;;;10.25;63.29
9035;BME280;4552;43.422;24.592;2023-04-08T06:56:42;100285.81;;;11.06;60.81
9035;BME280;4552;43.422;24.592;2023-04-08T06:59:09;100285.09;;;10.89;60.77
9035;BME280;4552;43.422;24.592;2023-04-08T07:01:36;100290.34;;;10.89;60.62
9035;BME280;4552;43.422;24.592;2023-04-08T07:04:03;100285.13;;;10.86;60.63
9035;BME280;4552;43.422;24.592;2023-04-08T07:06:30;100284.25;;;10.87;60.71
9035;BME280;4552;43.422;24.592;2023-04-08T07:08:57;100287.66;;;10.95;60.49
9035;BME280;4552;43.422;24.592;2023-04-08T07:11:27;100273.53;;;11.12;60.15
9035;BME280;4552;43.422;24.592;2023-04-08T07:14:13;100286.94;;;11.61;58.75
9035;BME280;4552;43.422;24.592;2023-04-08T07:16:41;100285.28;;;11.52;59.50
9035;BME280;4552;43.422;24.592;2023-04-08T07:19:08;100285.91;;;11.74;57.91
9035;BME280;4552;43.422;24.592;2023-04-08T07:21:38;100279.34;;;11.40;58.77
9035;BME280;4552;43.422;24.592;2023-04-08T07:24:08;100293.91;;;11.63;57.37
9035;BME280;4552;43.422;24.592;2023-04-08T07:26:36;100285.19;;;11.61;57.05
9035;BME280;4552;43.422;24.592;2023-04-08T07:49:15;100303.28;;;11.84;57.75
9035;BME280;4552;43.422;24.592;2023-04-08T07:51:42;100308.34;;;11.97;57.40
9035;BME280;4552;43.422;24.592;2023-04-08T07:54:09;100312.03;;;11.83;58.49
9035;BME280;4552;43.422;24.592;2023-04-08T07:56:41;100303.16;;;11.93;58.15
9035;BME280;4552;43.422;24.592;2023-04-08T08:23:05;100344.63;;;12.31;55.90
9035;BME280;4552;43.422;24.592;2023-04-08T08:25:32;100341.19;;;12.27;56.19
9035;BME280;4552;43.422;24.592;2023-04-08T08:27:59;100335.81;;;12.36;56.05
9035;BME280;4552;43.422;24.592;2023-04-08T08:30:26;100326.56;;;12.67;55.90
9035;BME280;4552;43.422;24.592;2023-04-08T08:32:53;100321.03;;;12.82;56.61
9035;BME280;4552;43.422;24.592;2023-04-08T08:35:23;100337.56;;;12.90;54.89
9035;BME280;4552;43.422;24.592;2023-04-08T08:37:50;100345.34;;;12.96;54.51
9035;BME280;4552;43.422;24.592;2023-04-08T08:40:18;100334.13;;;12.87;54.60
9035;BME280;4552;43.422;24.592;2023-04-08T08:42:49;100334.69;;;13.54;54.54
9035;BME280;4552;43.422;24.592;2023-04-08T08:45:18;100335.34;;;13.63;53.43
9035;BME280;4552;43.422;24.592;2023-04-08T08:47:45;100338.63;;;13.76;51.95
9035;BME280;4552;43.422;24.592;2023-04-08T08:50:12;100336.00;;;13.74;51.91
9035;BME280;4552;43.422;24.592;2023-04-08T08:52:47;100336.75;;;13.82;52.61
9035;BME280;4552;43.422;24.592;2023-04-08T08:55:15;100339.69;;;13.67;51.92
9035;BME280;4552;43.422;24.592;2023-04-08T08:57:45;100333.38;;;13.74;51.31
9035;BME280;4552;43.422;24.592;2023-04-08T09:00:13;100329.06;;;13.72;52.24
9035;BME280;4552;43.422;24.592;2023-04-08T09:02:40;100331.78;;;13.67;52.30
9035;BME280;4552;43.422;24.592;2023-04-08T09:05:08;100330.81;;;13.71;52.17
9035;BME280;4552;43.422;24.592;2023-04-08T09:07:36;100351.88;;;13.71;51.00
9035;BME280;4552;43.422;24.592;2023-04-08T09:10:05;100336.69;;;13.41;51.85
9035;BME280;4552;43.422;24.592;2023-04-08T09:12:33;100350.22;;;13.66;51.26
9035;BME280;4552;43.422;24.592;2023-04-08T09:18:23;100346.34;;;13.83;51.11
9035;BME280;4552;43.422;24.592;2023-04-08T09:20:51;100353.88;;;14.02;49.81
9035;BME280;4552;43.422;24.592;2023-04-08T09:23:18;100346.09;;;13.95;49.68
9035;BME280;4552;43.422;24.592;2023-04-08T09:25:45;100347.91;;;13.93;49.07
9035;BME280;4552;43.422;24.592;2023-04-08T09:34:53;100356.59;;;13.97;49.74
9035;BME280;4552;43.422;24.592;2023-04-08T09:37:20;100359.38;;;13.89;50.09
9035;BME280;4552;43.422;24.592;2023-04-08T09:39:47;100352.06;;;14.04;48.99
9035;BME280;4552;43.422;24.592;2023-04-08T09:42:15;100341.94;;;13.85;47.63
9035;BME280;4552;43.422;24.592;2023-04-08T09:44:45;100352.72;;;13.73;49.10
9035;BME280;4552;43.422;24.592;2023-04-08T09:47:18;100344.75;;;14.18;46.81
9035;BME280;4552;43.422;24.592;2023-04-08T09:49:54;100340.69;;;14.43;46.35
9035;BME280;4552;43.422;24.592;2023-04-08T09:52:24;100350.00;;;14.19;47.90
9035;BME280;4552;43.422;24.592;2023-04-08T09:55:00;100346.66;;;14.11;47.71
9035;BME280;4552;43.422;24.592;2023-04-08T09:57:36;100350.19;;;14.10;49.12
9035;BME280;4552;43.422;24.592;2023-04-08T10:00:09;100351.66;;;14.25;46.95
9035;BME280;4552;43.422;24.592;2023-04-08T10:02:41;100358.84;;;14.17;47.20
9035;BME280;4552;43.422;24.592;2023-04-08T10:05:13;100351.03;;;14.11;46.76
9035;BME280;4552;43.422;24.592;2023-04-08T10:07:41;100342.84;;;13.84;47.58
9035;BME280;4552;43.422;24.592;2023-04-08T10:10:09;100350.28;;;14.06;47.61
9035;BME280;4552;43.422;24.592;2023-04-08T10:12:37;100355.91;;;14.32;48.07
9035;BME280;4552;43.422;24.592;2023-04-08T10:15:24;100340.84;;;14.37;47.80
9035;BME280;4552;43.422;24.592;2023-04-08T10:17:51;100353.88;;;14.43;47.89
9035;BME280;4552;43.422;24.592;2023-04-08T10:20:42;100357.69;;;14.68;46.94
9035;BME280;4552;43.422;24.592;2023-04-08T10:23:10;100343.19;;;14.50;47.16
9035;BME280;4552;43.422;24.592;2023-04-08T10:25:39;100339.75;;;14.83;47.09
9035;BME280;4552;43.422;24.592;2023-04-08T10:28:25;100347.22;;;15.00;45.43
9035;BME280;4552;43.422;24.592;2023-04-08T10:30:53;100348.84;;;15.73;44.84
9035;BME280;4552;43.422;24.592;2023-04-08T11:31:20;100313.94;;;15.92;44.59
9035;BME280;4552;43.422;24.592;2023-04-08T11:33:48;100313.69;;;16.01;45.15
9035;BME280;4552;43.422;24.592;2023-04-08T11:36:18;100308.66;;;15.92;44.76
9035;BME280;4552;43.422;24.592;2023-04-08T11:38:46;100317.09;;;15.43;45.51
9035;BME280;4552;43.422;24.592;2023-04-08T11:41:13;100315.56;;;15.96;44.32
9035;BME280;4552;43.422;24.592;2023-04-08T11:43:53;100301.97;;;16.10;43.40
9035;BME280;4552;43.422;24.592;2023-04-08T11:46:23;100297.72;;;16.33;42.85
9035;BME280;4552;43.422;24.592;2023-04-08T11:48:57;100287.72;;;15.86;43.73
9035;BME280;4552;43.422;24.592;2023-04-08T11:51:24;100297.84;;;15.71;43.22
9035;BME280;4552;43.422;24.592;2023-04-08T11:53:52;100298.97;;;15.62;43.91
9035;BME280;4552;43.422;24.592;2023-04-08T11:56:20;100285.59;;;15.36;44.34
9035;BME280;4552;43.422;24.592;2023-04-08T12:35:37;100263.06;;;16.42;41.78
9035;BME280;4552;43.422;24.592;2023-04-08T12:38:05;100256.25;;;16.08;42.34
9035;BME280;4552;43.422;24.592;2023-04-08T12:40:32;100243.47;;;15.94;42.71
9035;BME280;4552;43.422;24.592;2023-04-08T12:42:59;100234.97;;;15.55;43.18
9035;BME280;4552;43.422;24.592;2023-04-08T12:45:26;100253.78;;;15.74;43.13
9035;BME280;4552;43.422;24.592;2023-04-08T12:47:53;100236.75;;;15.84;43.20
9035;BME280;4552;43.422;24.592;2023-04-08T14:12:34;100197.22;;;15.21;45.34
9035;BME280;4552;43.422;24.592;2023-04-08T14:15:01;100198.50;;;15.08;45.53
9035;BME280;4552;43.422;24.592;2023-04-08T14:17:28;100197.94;;;15.28;45.29
9035;BME280;4552;43.422;24.592;2023-04-08T14:19:55;100187.25;;;15.02;45.36
9035;BME280;4552;43.422;24.592;2023-04-08T14:22:24;100186.16;;;15.09;45.66
9035;BME280;4552;43.422;24.592;2023-04-08T14:24:51;100191.97;;;15.21;46.01
9035;BME280;4552;43.422;24.592;2023-04-08T14:27:18;100186.78;;;15.18;46.23
9035;BME280;4552;43.422;24.592;2023-04-08T14:29:46;100173.00;;;15.07;46.44
9035;BME280;4552;43.422;24.592;2023-04-08T14:32:13;100169.22;;;14.87;47.28
9035;BME280;4552;43.422;24.592;2023-04-08T14:34:41;100173.69;;;14.83;47.51
9035;BME280;4552;43.422;24.592;2023-04-08T14:37:08;100182.19;;;14.94;47.74
9035;BME280;4552;43.422;24.592;2023-04-08T14:39:35;100168.31;;;14.88;48.28
9035;BME280;4552;43.422;24.592;2023-04-08T14:42:01;100163.56;;;14.68;48.54
9035;BME280;4552;43.422;24.592;2023-04-08T14:44:28;100174.31;;;14.93;48.34
9035;BME280;4552;43.422;24.592;2023-04-08T14:46:57;100164.50;;;14.98;47.67
9035;BME280;4552;43.422;24.592;2023-04-08T14:49:24;100182.06;;;14.99;48.06
9035;BME280;4552;43.422;24.592;2023-04-08T14:51:51;100172.19;;;14.73;48.43
9035;BME280;4552;43.422;24.592;2023-04-08T14:54:17;100173.31;;;14.65;48.51
9035;BME280;4552;43.422;24.592;2023-04-08T14:56:44;100171.97;;;14.82;48.48
9035;BME280;4552;43.422;24.592;2023-04-08T14:59:11;100183.75;;;14.69;48.64
9035;BME280;4552;43.422;24.592;2023-04-08T15:01:38;100179.53;;;14.62;48.37
9035;BME280;4552;43.422;24.592;2023-04-08T15:04:07;100174.66;;;14.81;48.75
9035;BME280;4552;43.422;24.592;2023-04-08T15:06:34;100179.72;;;14.56;48.94
9035;BME280;4552;43.422;24.592;2023-04-08T15:09:01;100183.34;;;14.51;49.36
9035;BME280;4552;43.422;24.592;2023-04-08T19:18:49;100347.06;;;11.79;74.17
9035;BME280;4552;43.422;24.592;2023-04-08T19:21:17;100347.09;;;11.76;75.07
9035;BME280;4552;43.422;24.592;2023-04-08T19:23:44;100351.19;;;11.99;73.94
9035;BME280;4552;43.422;24.592;2023-04-08T19:26:13;100356.22;;;12.14;73.73
9035;BME280;4552;43.422;24.592;2023-04-08T19:28:40;100346.75;;;12.01;72.87
9035;BME280;4552;43.422;24.592;2023-04-08T19:31:13;100350.16;;;12.09;73.36
9035;BME280;4552;43.422;24.592;2023-04-08T19:33:41;100355.38;;;12.11;73.39
9035;BME280;4552;43.422;24.592;2023-04-08T19:36:09;100348.66;;;11.92;74.17
9035;BME280;4552;43.422;24.592;2023-04-08T19:38:36;100346.88;;;11.92;74.51
9035;BME280;4552;43.422;24.592;2023-04-08T19:41:03;100339.34;;;11.65;75.55
9035;BME280;4552;43.422;24.592;2023-04-08T19:43:31;100350.75;;;11.63;75.95
9035;BME280;4552;43.422;24.592;2023-04-08T19:45:58;100354.03;;;11.80;76.12
9035;BME280;4552;43.422;24.592;2023-04-08T19:48:25;100356.59;;;11.83;75.34
9035;BME280;4552;43.422;24.592;2023-04-08T19:50:52;100341.00;;;11.72;75.03
9035;BME280;4552;43.422;24.592;2023-04-08T19:53:20;100344.50;;;11.74;74.48
9035;BME280;4552;43.422;24.592;2023-04-08T19:55:47;100341.69;;;11.88;74.44
9035;BME280;4552;43.422;24.592;2023-04-08T19:58:14;100350.19;;;12.08;72.93
9035;BME280;4552;43.422;24.592;2023-04-08T20:00:42;100357.00;;;12.23;73.12
9035;BME280;4552;43.422;24.592;2023-04-08T20:03:09;100343.41;;;11.93;73.22
9035;BME280;4552;43.422;24.592;2023-04-08T20:05:36;100335.63;;;11.83;74.19
9035;BME280;4552;43.422;24.592;2023-04-08T20:08:03;100357.31;;;11.97;74.76
9035;BME280;4552;43.422;24.592;2023-04-08T20:10:31;100342.44;;;11.99;74.45
9035;BME280;4552;43.422;24.592;2023-04-08T20:13:00;100356.38;;;12.02;74.59
9035;BME280;4552;43.422;24.592;2023-04-08T20:15:26;100367.00;;;11.93;73.78
9035;BME280;4552;43.422;24.592;2023-04-08T21:11:41;100372.03;;;11.30;79.54
9035;BME280;4552;43.422;24.592;2023-04-08T21:14:08;100377.22;;;11.33;80.43
9035;BME280;4552;43.422;24.592;2023-04-08T21:16:35;100354.72;;;11.14;79.27
9035;BME280;4552;43.422;24.592;2023-04-08T21:19:02;100367.88;;;11.09;81.12
9035;BME280;4552;43.422;24.592;2023-04-08T21:21:29;100369.63;;;11.06;81.36
9035;BME280;4552;43.422;24.592;2023-04-08T21:23:56;100369.66;;;11.04;81.42
9035;BME280;4552;43.422;24.592;2023-04-08T21:26:24;100359.38;;;10.83;82.82
9035;BME280;4552;43.422;24.592;2023-04-08T21:28:53;100342.91;;;10.65;84.70
9035;BME280;4552;43.422;24.592;2023-04-08T21:31:21;100355.06;;;10.72;84.51
9035;BME280;4552;43.422;24.592;2023-04-08T21:33:48;100354.28;;;10.57;85.83
9035;BME280;4552;43.422;24.592;2023-04-08T21:36:15;100342.94;;;10.62;88.02
9035;BME280;4552;43.422;24.592;2023-04-08T21:38:43;100356.91;;;10.57;89.59
9035;BME280;4552;43.422;24.592;2023-04-08T21:41:09;100339.44;;;10.63;89.43
9035;BME280;4552;43.422;24.592;2023-04-08T21:43:40;100353.34;;;10.72;88.89
9035;BME280;4552;43.422;24.592;2023-04-08T21:46:10;100333.34;;;10.62;88.76
9035;BME280;4552;43.422;24.592;2023-04-08T21:48:51;100335.94;;;10.67;89.49
9035;BME280;4552;43.422;24.592;2023-04-08T22:19:15;100340.47;;;10.43;91.05
9035;BME280;4552;43.422;24.592;2023-04-08T22:21:42;100343.94;;;10.41;91.13
9035;BME280;4552;43.422;24.592;2023-04-08T22:24:09;100350.13;;;10.31;91.24
9035;BME280;4552;43.422;24.592;2023-04-08T22:26:36;100352.72;;;10.35;90.74
9035;BME280;4552;43.422;24.592;2023-04-08T22:29:03;100349.09;;;10.51;90.84
9035;BME280;4552;43.422;24.592;2023-04-08T22:31:30;100348.34;;;10.37;89.77
9035;BME280;4552;43.422;24.592;2023-04-08T22:33:57;100340.44;;;10.46;89.89
9035;BME280;4552;43.422;24.592;2023-04-08T22:36:25;100352.59;;;10.55;89.73
9035;BME280;4552;43.422;24.592;2023-04-08T22:38:52;100352.47;;;10.70;89.80
9035;BME280;4552;43.422;24.592;2023-04-08T22:41:21;100346.47;;;10.59;88.40
9035;BME280;4552;43.422;24.592;2023-04-08T22:43:48;100346.41;;;10.65;88.40
9035;BME280;4552;43.422;24.592;2023-04-08T22:46:16;100341.25;;;10.51;89.07
9035;BME280;4552;43.422;24.592;2023-04-08T22:48:44;100343.94;;;10.44;89.10
9035;BME280;4552;43.422;24.592;2023-04-08T22:51:11;100349.16;;;10.45;89.54
9035;BME280;4552;43.422;24.592;2023-04-08T22:53:40;100341.38;;;10.35;89.16
9035;BME280;4552;43.422;24.592;2023-04-08T22:56:07;100346.66;;;10.27;89.09
9035;BME280;4552;43.422;24.592;2023-04-08T22:58:33;100327.44;;;10.37;89.14
9035;BME280;4552;43.422;24.592;2023-04-08T23:01:00;100327.47;;;10.25;88.69
9035;BME280;4552;43.422;24.592;2023-04-08T23:03:29;100344.84;;;10.38;88.92
9035;BME280;4552;43.422;24.592;2023-04-08T23:05:58;100335.28;;;10.37;89.28
9035;BME280;4552;43.422;24.592;2023-04-08T23:08:25;100328.22;;;10.45;88.97
9035;BME280;4552;43.422;24.592;2023-04-08T23:10:54;100344.72;;;10.55;88.51
9035;BME280;4552;43.422;24.592;2023-04-08T23:13:21;100344.00;;;10.32;89.09
9035;BME280;4552;43.422;24.592;2023-04-08T23:15:48;100334.44;;;10.29;89.70
9035;BME280;4552;43.422;24.592;2023-04-08T23:18:15;100336.25;;;10.17;91.16
9035;BME280;4552;43.422;24.592;2023-04-08T23:51:00;100349.59;;;9.40;100.00
9035;BME280;4552;43.422;24.592;2023-04-08T23:53:27;100342.66;;;9.36;100.00
9035;BME280;4552;43.422;24.592;2023-04-08T23:55:57;100340.94;;;9.22;100.00
9035;BME280;4552;43.422;24.592;2023-04-08T23:58:28;100341.72;;;9.58;100.00
